Terminal Aerodrome Forecast
Issued by NWS

Home | Current Version | Previous Version | Text Only | Print | Product List | Glossary On
Versions: 1 2 3 4 5 6 7 8 9 10 11 12 13 14
000
FTPQ31 PGUM 291242 AAD
TAFGSN
TAF AMD
PGSN 291242Z 2913/3012 25010KT P6SM VCSH FEW020 SCT050 BKN080
      TEMPO 2913/2916 30014G26KT 2SM +SHRA SCT011 BKN025 OVC040=

USA.gov is the U.S. government's official web portal to all federal, state and local government web resources and services.